createdAt,value
2018-06-16T00:00:20.371Z,17.80
2018-06-16T00:02:47.937Z,17.80
2018-06-16T00:05:15.509Z,17.70
2018-06-16T00:07:43.149Z,17.70
2018-06-16T00:10:10.752Z,17.70
2018-06-16T00:12:38.352Z,17.70
2018-06-16T00:15:06.018Z,17.60
2018-06-16T00:17:33.717Z,17.60
2018-06-16T00:20:01.265Z,17.60
2018-06-16T00:22:28.853Z,17.60
2018-06-16T00:24:58.495Z,17.60
2018-06-16T00:27:26.673Z,17.60
2018-06-16T00:29:54.267Z,17.50
2018-06-16T00:32:22.205Z,17.50
2018-06-16T00:34:50.081Z,17.50
2018-06-16T00:37:17.745Z,17.40
2018-06-16T00:39:45.509Z,17.40
2018-06-16T00:42:13.045Z,17.40
2018-06-16T00:44:40.729Z,17.40
2018-06-16T00:47:08.311Z,17.40
2018-06-16T00:49:35.903Z,17.40
2018-06-16T00:54:31.031Z,17.40
2018-06-16T00:57:09.968Z,17.30
2018-06-16T00:59:37.480Z,17.30
2018-06-16T01:02:05.093Z,17.20
2018-06-16T01:04:32.718Z,17.20
2018-06-16T01:07:00.273Z,17.20
2018-06-16T01:09:27.836Z,17.20
2018-06-16T01:11:55.406Z,17.20
2018-06-16T01:14:22.985Z,17.20
2018-06-16T01:16:50.553Z,17.20
2018-06-16T01:19:18.189Z,17.20
2018-06-16T01:21:46.001Z,17.20
2018-06-16T01:24:13.541Z,17.10
2018-06-16T01:26:41.433Z,17.10
2018-06-16T01:29:09.041Z,17.00
2018-06-16T01:31:36.953Z,17.00
2018-06-16T01:34:04.571Z,17.00
2018-06-16T01:36:32.131Z,16.90
2018-06-16T01:38:59.637Z,16.90
2018-06-16T01:41:27.229Z,16.90
2018-06-16T01:43:54.747Z,16.80
2018-06-16T01:48:50.114Z,16.80
2018-06-16T01:51:17.749Z,16.80
2018-06-16T01:53:45.358Z,16.80
2018-06-16T01:56:12.932Z,16.80
2018-06-16T01:58:40.482Z,16.70
2018-06-16T02:01:08.070Z,16.70
2018-06-16T02:03:35.672Z,16.70
2018-06-16T02:06:03.286Z,16.70
2018-06-16T02:08:30.826Z,16.70
2018-06-16T02:10:58.568Z,16.70
2018-06-16T02:13:26.146Z,16.60
2018-06-16T02:18:21.213Z,16.60
2018-06-16T02:20:48.764Z,16.60
2018-06-16T02:23:16.334Z,16.60
2018-06-16T02:25:43.908Z,16.60
2018-06-16T02:28:11.452Z,16.60
2018-06-16T02:30:39.034Z,16.50
2018-06-16T02:33:06.708Z,16.50
2018-06-16T02:35:34.518Z,16.50
2018-06-16T02:38:02.059Z,16.50
2018-06-16T02:40:29.634Z,16.50
2018-06-16T02:42:57.197Z,16.40
2018-06-16T02:45:24.756Z,16.50
2018-06-16T02:47:52.430Z,16.50
2018-06-16T02:50:19.995Z,16.50
2018-06-16T02:52:47.554Z,16.50
2018-06-16T02:55:15.162Z,16.50
2018-06-16T02:57:42.718Z,16.50
2018-06-16T03:00:10.317Z,16.50
2018-06-16T03:02:37.904Z,16.50
2018-06-16T03:05:05.474Z,16.50
2018-06-16T03:07:33.034Z,16.60
2018-06-16T03:10:00.602Z,16.60
2018-06-16T03:14:55.686Z,16.60
2018-06-16T03:17:23.318Z,16.60
2018-06-16T03:19:50.863Z,16.60
2018-06-16T03:22:18.392Z,16.70
2018-06-16T03:24:45.944Z,16.70
2018-06-16T03:27:13.504Z,16.70
2018-06-16T03:29:41.049Z,16.70
2018-06-16T03:32:09.460Z,16.70
2018-06-16T03:34:37.076Z,16.70
2018-06-16T03:37:04.818Z,16.70
2018-06-16T03:41:59.884Z,16.80
2018-06-16T03:44:27.466Z,16.80
2018-06-16T03:46:55.087Z,16.80
2018-06-16T03:49:22.671Z,16.80
2018-06-16T03:51:50.258Z,16.90
2018-06-16T03:54:17.890Z,16.90
2018-06-16T03:56:45.392Z,16.90
2018-06-16T03:59:12.932Z,17.00
2018-06-16T04:01:40.541Z,17.00
2018-06-16T04:04:08.080Z,17.10
2018-06-16T04:06:35.649Z,17.10
2018-06-16T04:09:04.885Z,17.10
2018-06-16T04:11:32.489Z,17.20
2018-06-16T04:14:00.038Z,17.20
2018-06-16T04:16:27.625Z,17.20
2018-06-16T04:18:55.145Z,17.30
2018-06-16T04:21:22.708Z,17.30
2018-06-16T04:23:50.303Z,17.40
2018-06-16T04:26:17.849Z,17.40
2018-06-16T04:28:45.401Z,17.50
2018-06-16T04:31:13.025Z,17.50
2018-06-16T04:33:40.588Z,17.60
2018-06-16T04:36:08.143Z,17.60
2018-06-16T04:38:35.715Z,17.70
2018-06-16T04:41:03.257Z,17.80
2018-06-16T04:43:30.805Z,17.90
2018-06-16T04:45:58.453Z,18.00
2018-06-16T04:48:26.025Z,18.00
2018-06-16T04:50:53.541Z,18.10
2018-06-16T04:53:21.107Z,18.20
2018-06-16T04:55:48.649Z,18.30
2018-06-16T04:58:16.224Z,18.40
2018-06-16T05:00:43.817Z,18.60
2018-06-16T05:03:11.457Z,18.70
2018-06-16T05:05:38.969Z,18.80
2018-06-16T05:08:06.613Z,18.90
2018-06-16T05:10:34.201Z,19.10
2018-06-16T05:13:01.762Z,19.20
2018-06-16T05:15:29.319Z,19.30
2018-06-16T05:17:56.839Z,19.40
2018-06-16T05:20:24.401Z,19.40
2018-06-16T05:22:52.009Z,19.50
2018-06-16T05:25:19.577Z,19.60
2018-06-16T05:27:47.136Z,19.70
2018-06-16T05:30:14.789Z,19.70
2018-06-16T05:32:42.326Z,19.80
2018-06-16T05:35:09.896Z,19.80
2018-06-16T05:37:37.530Z,19.90
2018-06-16T05:40:05.071Z,20.00
2018-06-16T05:42:32.621Z,20.00
2018-06-16T05:45:00.208Z,20.00
2018-06-16T05:47:27.775Z,20.10
2018-06-16T05:49:55.350Z,20.20
2018-06-16T05:52:23.004Z,20.20
2018-06-16T05:54:50.569Z,20.20
2018-06-16T05:57:18.187Z,20.30
2018-06-16T05:59:45.771Z,20.40
2018-06-16T06:02:13.320Z,20.40
2018-06-16T06:04:40.848Z,20.50
2018-06-16T06:07:08.475Z,20.60
2018-06-16T06:09:36.030Z,20.70
2018-06-16T06:12:03.631Z,20.80
2018-06-16T06:14:31.231Z,20.90
2018-06-16T06:16:58.809Z,21.00
2018-06-16T06:19:26.337Z,21.10
2018-06-16T06:21:53.897Z,21.20
2018-06-16T06:26:48.909Z,21.30
2018-06-16T06:29:16.528Z,21.30
2018-06-16T06:31:44.069Z,21.30
2018-06-16T06:34:11.657Z,21.40
2018-06-16T06:36:39.217Z,21.50
2018-06-16T06:39:07.621Z,21.60
2018-06-16T06:41:35.173Z,21.80
2018-06-16T06:44:02.803Z,21.80
2018-06-16T06:46:30.339Z,21.90
2018-06-16T06:48:57.939Z,21.90
2018-06-16T06:51:25.562Z,22.00
2018-06-16T06:53:53.097Z,22.10
2018-06-16T06:56:20.637Z,22.10
2018-06-16T06:58:48.195Z,22.20
2018-06-16T07:01:15.837Z,22.30
2018-06-16T07:03:43.381Z,22.50
2018-06-16T07:06:10.955Z,22.60
2018-06-16T07:08:38.689Z,22.70
2018-06-16T07:11:06.206Z,22.90
2018-06-16T07:16:01.395Z,23.20
2018-06-16T07:18:28.946Z,23.30
2018-06-16T07:20:56.500Z,23.40
2018-06-16T07:23:24.047Z,23.50
2018-06-16T07:25:51.598Z,23.70
2018-06-16T07:28:19.214Z,23.80
2018-06-16T07:30:46.787Z,24.00
2018-06-16T07:33:14.345Z,24.20
2018-06-16T07:35:41.950Z,24.30
2018-06-16T07:38:09.532Z,24.50
2018-06-16T07:40:37.134Z,24.80
2018-06-16T07:43:04.718Z,25.10
2018-06-16T07:45:32.264Z,25.50
2018-06-16T07:47:59.890Z,25.80
2018-06-16T07:50:27.514Z,26.30
2018-06-16T07:52:55.066Z,27.00
2018-06-16T07:55:22.652Z,27.40
2018-06-16T07:57:50.244Z,27.90
2018-06-16T08:00:17.790Z,28.30
2018-06-16T08:02:45.403Z,28.60
2018-06-16T08:05:12.960Z,28.90
2018-06-16T08:07:40.496Z,29.00
2018-06-16T08:10:08.114Z,29.10
2018-06-16T08:12:35.678Z,29.50
2018-06-16T08:15:03.309Z,30.60
2018-06-16T08:17:30.936Z,31.50
2018-06-16T08:19:58.530Z,32.30
2018-06-16T08:22:26.071Z,32.90
2018-06-16T08:24:54.144Z,32.90
2018-06-16T08:27:21.742Z,32.20
2018-06-16T08:29:49.294Z,32.00
2018-06-16T08:32:17.006Z,31.90
2018-06-16T08:34:44.662Z,31.80
2018-06-16T08:37:12.184Z,31.90
2018-06-16T08:39:39.748Z,32.10
2018-06-16T08:42:07.539Z,32.40
2018-06-16T08:44:35.129Z,33.20
2018-06-16T08:47:02.697Z,33.90
2018-06-16T08:49:30.361Z,34.80
2018-06-16T08:51:57.920Z,35.60
2018-06-16T08:54:25.566Z,36.10
2018-06-16T08:56:53.142Z,36.60
2018-06-16T08:59:20.664Z,36.30
2018-06-16T09:01:48.234Z,35.60
2018-06-16T09:04:15.880Z,35.00
2018-06-16T09:06:43.482Z,34.50
2018-06-16T09:09:11.047Z,33.90
2018-06-16T09:11:38.811Z,33.40
2018-06-16T09:14:06.424Z,33.10
2018-06-16T09:16:34.424Z,32.50
2018-06-16T09:19:02.047Z,32.00
2018-06-16T09:21:29.612Z,31.60
2018-06-16T09:23:57.179Z,31.20
2018-06-16T09:26:24.766Z,31.10
2018-06-16T09:28:52.406Z,30.90
2018-06-16T09:31:19.970Z,30.80
2018-06-16T09:33:47.554Z,30.80
2018-06-16T09:36:15.209Z,31.00
2018-06-16T09:38:42.681Z,31.20
2018-06-16T09:41:10.348Z,31.20
2018-06-16T09:43:38.023Z,31.10
2018-06-16T09:46:05.603Z,31.10
2018-06-16T09:48:33.223Z,31.20
2018-06-16T09:51:00.783Z,31.30
2018-06-16T09:53:28.620Z,31.00
2018-06-16T09:55:56.202Z,30.80
2018-06-16T09:58:23.812Z,30.60
2018-06-16T10:00:51.392Z,30.50
2018-06-16T10:03:18.976Z,30.30
2018-06-16T10:05:46.552Z,29.80
2018-06-16T10:08:14.157Z,29.50
2018-06-16T10:10:41.745Z,29.30
2018-06-16T10:13:09.277Z,29.00
2018-06-16T10:15:36.836Z,28.80
2018-06-16T10:18:04.475Z,28.60
2018-06-16T10:20:32.030Z,28.60
2018-06-16T10:22:59.565Z,28.50
2018-06-16T10:25:27.141Z,28.60
2018-06-16T10:27:54.689Z,28.80
2018-06-16T10:30:22.347Z,28.80
2018-06-16T10:32:49.954Z,28.80
2018-06-16T10:35:17.513Z,29.00
2018-06-16T10:37:45.183Z,29.10
2018-06-16T10:40:12.849Z,29.20
2018-06-16T10:42:40.420Z,29.20
2018-06-16T10:45:07.995Z,29.10
2018-06-16T10:47:35.701Z,29.00
2018-06-16T10:50:03.427Z,29.00
2018-06-16T10:52:31.088Z,29.00
2018-06-16T10:54:58.851Z,28.90
2018-06-16T10:57:27.076Z,28.90
2018-06-16T10:59:55.326Z,28.90
2018-06-16T11:02:22.987Z,28.90
2018-06-16T11:04:51.073Z,28.80
2018-06-16T11:07:18.729Z,28.80
2018-06-16T11:09:46.505Z,28.90
2018-06-16T11:12:14.484Z,28.80
2018-06-16T11:14:42.334Z,28.70
2018-06-16T11:17:10.032Z,28.60
2018-06-16T11:19:37.750Z,28.50
2018-06-16T11:22:05.409Z,28.60
2018-06-16T11:24:33.166Z,28.60
2018-06-16T11:27:00.796Z,28.60
2018-06-16T11:29:34.574Z,28.70
2018-06-16T11:32:08.498Z,28.70
2018-06-16T11:34:36.582Z,28.70
2018-06-16T11:37:04.243Z,28.60
2018-06-16T11:39:31.858Z,28.50
2018-06-16T11:41:59.480Z,28.40
2018-06-16T11:44:27.198Z,28.40
2018-06-16T11:46:54.805Z,28.40
2018-06-16T11:49:22.829Z,28.60
2018-06-16T11:51:53.023Z,28.70
2018-06-16T11:54:20.656Z,28.80
2018-06-16T11:56:48.406Z,29.00
2018-06-16T11:59:16.066Z,29.10
2018-06-16T12:01:43.694Z,29.20
2018-06-16T12:04:11.392Z,29.50
2018-06-16T12:06:39.082Z,29.70
2018-06-16T12:09:09.342Z,29.80
2018-06-16T12:11:36.992Z,30.00
2018-06-16T12:14:05.103Z,30.00
2018-06-16T12:16:32.924Z,29.80
2018-06-16T12:19:00.835Z,29.80
2018-06-16T12:21:28.449Z,29.70
2018-06-16T12:23:56.057Z,29.70
2018-06-16T12:26:23.822Z,29.90
2018-06-16T12:28:51.475Z,29.90
2018-06-16T12:31:19.077Z,30.00
2018-06-16T12:36:14.561Z,30.00
2018-06-16T12:38:42.608Z,30.10
2018-06-16T12:41:10.301Z,30.10
2018-06-16T12:43:37.987Z,30.00
2018-06-16T12:46:05.646Z,30.00
2018-06-16T12:48:33.429Z,30.00
2018-06-16T12:51:01.023Z,29.90
2018-06-16T12:53:28.883Z,29.90
2018-06-16T12:55:56.557Z,30.00
2018-06-16T12:58:24.220Z,30.00
2018-06-16T13:00:51.879Z,30.10
2018-06-16T13:03:19.564Z,30.20
2018-06-16T13:05:47.263Z,30.10
2018-06-16T13:08:14.937Z,30.00
2018-06-16T13:10:42.967Z,30.00
2018-06-16T13:13:10.626Z,29.90
2018-06-16T13:15:38.311Z,30.00
2018-06-16T13:18:06.042Z,30.00
2018-06-16T13:20:33.736Z,30.00
2018-06-16T13:23:01.506Z,30.00
2018-06-16T13:25:29.571Z,30.10
2018-06-16T13:27:57.889Z,30.00
2018-06-16T13:30:25.566Z,30.10
2018-06-16T13:32:53.175Z,30.20
2018-06-16T13:35:20.790Z,30.10
2018-06-16T13:37:48.726Z,30.10
2018-06-16T13:40:16.391Z,30.00
2018-06-16T13:42:44.010Z,30.00
2018-06-16T13:45:11.653Z,30.00
2018-06-16T13:47:39.367Z,30.10
2018-06-16T13:50:07.144Z,30.10
2018-06-16T13:52:34.814Z,30.10
2018-06-16T13:55:02.622Z,30.00
2018-06-16T13:57:30.338Z,30.00
2018-06-16T13:59:58.010Z,30.10
2018-06-16T14:02:25.642Z,30.10
2018-06-16T14:04:53.358Z,30.00
2018-06-16T14:07:21.011Z,30.00
2018-06-16T14:09:48.664Z,29.90
2018-06-16T14:12:16.300Z,30.00
2018-06-16T14:14:43.968Z,29.90
2018-06-16T14:17:11.699Z,29.90
2018-06-16T14:19:39.612Z,29.90
2018-06-16T14:22:07.426Z,29.90
2018-06-16T14:24:35.144Z,30.00
2018-06-16T14:27:02.801Z,29.90
2018-06-16T14:29:30.440Z,29.80
2018-06-16T14:31:58.262Z,29.80
2018-06-16T14:34:25.982Z,29.80
2018-06-16T14:36:53.729Z,29.80
2018-06-16T14:39:21.775Z,29.70
2018-06-16T14:41:49.405Z,29.50
2018-06-16T14:44:17.106Z,29.30
2018-06-16T14:46:44.796Z,29.10
2018-06-16T14:49:12.727Z,29.00
2018-06-16T14:51:40.439Z,28.90
2018-06-16T14:54:08.201Z,28.80
2018-06-16T14:56:36.113Z,28.70
2018-06-16T14:59:03.857Z,28.80
2018-06-16T15:01:31.549Z,28.90
2018-06-16T15:03:59.289Z,29.00
2018-06-16T15:06:27.280Z,29.10
2018-06-16T15:08:55.321Z,29.10
2018-06-16T15:11:22.927Z,29.00
2018-06-16T15:13:50.605Z,28.80
2018-06-16T15:16:18.424Z,28.70
2018-06-16T15:18:46.061Z,28.50
2018-06-16T15:21:13.681Z,28.40
2018-06-16T15:23:41.348Z,28.30
2018-06-16T15:26:09.379Z,28.40
2018-06-16T15:28:37.050Z,28.40
2018-06-16T15:31:04.698Z,28.50
2018-06-16T15:33:32.322Z,28.50
2018-06-16T15:38:27.585Z,28.50
2018-06-16T15:40:55.323Z,28.50
2018-06-16T15:43:22.999Z,28.40
2018-06-16T15:45:51.220Z,28.30
2018-06-16T15:48:18.879Z,28.20
2018-06-16T15:50:46.481Z,28.10
2018-06-16T15:53:14.284Z,28.00
2018-06-16T15:55:42.012Z,27.80
2018-06-16T15:58:09.654Z,27.60
2018-06-16T16:00:38.185Z,27.50
2018-06-16T16:03:06.570Z,27.50
2018-06-16T16:05:35.446Z,27.60
2018-06-16T16:08:03.380Z,27.60
2018-06-16T16:10:31.010Z,27.70
2018-06-16T16:12:58.862Z,27.80
2018-06-16T16:15:27.166Z,27.80
2018-06-16T16:17:54.828Z,27.70
2018-06-16T16:20:22.478Z,27.60
2018-06-16T16:22:50.135Z,27.50
2018-06-16T16:25:17.775Z,27.40
2018-06-16T16:27:45.654Z,27.40
2018-06-16T16:30:13.326Z,27.40
2018-06-16T16:32:40.996Z,27.30
2018-06-16T16:35:08.716Z,27.30
2018-06-16T16:37:36.371Z,27.30
2018-06-16T16:40:04.401Z,27.30
2018-06-16T16:44:59.690Z,27.30
2018-06-16T16:47:27.655Z,27.30
2018-06-16T16:49:55.719Z,27.20
2018-06-16T16:52:23.397Z,27.20
2018-06-16T16:54:51.235Z,27.20
2018-06-16T16:57:19.097Z,27.20
2018-06-16T16:59:46.773Z,27.20
2018-06-16T17:02:14.425Z,27.10
2018-06-16T17:04:42.087Z,27.00
2018-06-16T17:07:09.777Z,26.90
2018-06-16T17:09:37.512Z,26.80
2018-06-16T17:12:05.191Z,26.70
2018-06-16T17:14:32.865Z,26.60
2018-06-16T17:17:00.527Z,26.50
2018-06-16T17:19:28.208Z,26.40
2018-06-16T17:21:55.875Z,26.30
2018-06-16T17:24:23.601Z,26.20
2018-06-16T17:26:51.420Z,26.10
2018-06-16T17:29:19.121Z,26.20
2018-06-16T17:31:46.761Z,26.00
2018-06-16T17:34:14.489Z,26.00
2018-06-16T17:36:42.201Z,26.00
2018-06-16T17:39:10.504Z,25.90
2018-06-16T17:41:38.464Z,25.70
2018-06-16T17:44:06.296Z,25.60
2018-06-16T17:46:34.018Z,25.60
2018-06-16T17:49:01.678Z,25.50
2018-06-16T17:51:29.468Z,25.40
2018-06-16T17:53:57.097Z,25.40
2018-06-16T17:56:25.058Z,25.30
2018-06-16T17:58:52.792Z,25.30
2018-06-16T18:01:20.770Z,25.20
2018-06-16T18:03:48.430Z,25.10
2018-06-16T18:06:16.150Z,25.10
2018-06-16T18:08:43.862Z,25.10
2018-06-16T18:11:11.532Z,25.00
2018-06-16T18:13:39.270Z,25.20
2018-06-16T18:16:06.942Z,25.10
2018-06-16T18:18:34.602Z,25.10
2018-06-16T18:21:02.383Z,25.10
2018-06-16T18:23:30.264Z,25.00
2018-06-16T18:25:57.944Z,25.00
2018-06-16T18:28:25.606Z,24.90
2018-06-16T18:30:54.584Z,25.00
2018-06-16T18:33:22.790Z,25.00
2018-06-16T18:35:50.920Z,25.00
2018-06-16T18:38:19.398Z,25.00
2018-06-16T18:40:47.193Z,24.90
2018-06-16T18:43:14.938Z,24.90
2018-06-16T18:45:42.588Z,24.70
2018-06-16T18:48:10.247Z,24.70
2018-06-16T18:50:37.890Z,24.70
2018-06-16T18:53:05.690Z,24.50
2018-06-16T18:55:33.651Z,24.40
2018-06-16T18:58:01.763Z,24.30
2018-06-16T19:00:29.599Z,24.20
2018-06-16T19:02:57.572Z,24.10
2018-06-16T19:05:26.226Z,23.90
2018-06-16T19:07:53.901Z,23.90
2018-06-16T19:10:21.669Z,23.80
2018-06-16T19:12:49.399Z,23.80
2018-06-16T19:15:17.396Z,23.70
2018-06-16T19:17:45.133Z,23.60
2018-06-16T19:20:12.974Z,23.50
2018-06-16T19:22:40.675Z,23.40
2018-06-16T19:25:08.761Z,23.30
2018-06-16T19:27:36.540Z,23.20
2018-06-16T19:30:04.262Z,23.10
2018-06-16T19:32:31.927Z,23.00
2018-06-16T19:34:59.681Z,22.90
2018-06-16T19:37:27.336Z,22.90
2018-06-16T19:39:55.114Z,22.80
2018-06-16T19:42:22.839Z,22.70
2018-06-16T19:44:50.982Z,22.70
2018-06-16T19:47:18.650Z,22.60
2018-06-16T19:49:46.388Z,22.50
2018-06-16T19:52:14.104Z,22.50
2018-06-16T19:54:41.940Z,22.40
2018-06-16T19:57:09.754Z,22.30
2018-06-16T19:59:37.471Z,22.30
2018-06-16T20:02:05.754Z,22.20
2018-06-16T20:04:33.518Z,22.20
2018-06-16T20:07:01.238Z,22.10
2018-06-16T20:09:28.934Z,22.10
2018-06-16T20:11:57.217Z,22.10
2018-06-16T20:14:25.174Z,22.00
2018-06-16T20:16:52.864Z,22.00
2018-06-16T20:19:20.737Z,21.90
2018-06-16T20:21:48.530Z,21.90
2018-06-16T20:26:44.360Z,21.70
2018-06-16T20:29:12.066Z,21.70
2018-06-16T20:31:39.861Z,21.60
2018-06-16T20:34:07.763Z,21.60
2018-06-16T20:36:35.489Z,21.50
2018-06-16T20:39:05.781Z,21.50
2018-06-16T20:41:33.824Z,21.40
2018-06-16T20:44:01.480Z,21.40
2018-06-16T20:46:29.479Z,21.30
2018-06-16T20:48:57.163Z,21.40
2018-06-16T20:51:24.915Z,21.40
2018-06-16T20:53:52.669Z,21.30
2018-06-16T20:56:20.455Z,21.30
2018-06-16T20:58:48.374Z,21.30
2018-06-16T21:01:16.398Z,21.30
2018-06-16T21:03:44.486Z,21.30
2018-06-16T21:06:12.144Z,21.20
2018-06-16T21:08:39.921Z,21.30
2018-06-16T21:11:07.562Z,21.30
2018-06-16T21:13:35.278Z,21.30
2018-06-16T21:16:02.976Z,21.30
2018-06-16T21:18:30.762Z,21.30
2018-06-16T21:20:58.618Z,21.20
2018-06-16T21:23:26.332Z,21.10
2018-06-16T21:25:54.044Z,21.20
2018-06-16T21:28:21.701Z,21.30
2018-06-16T21:30:49.493Z,21.30
2018-06-16T21:33:17.228Z,21.40
2018-06-16T21:35:44.900Z,21.40
2018-06-16T21:38:12.568Z,21.40
2018-06-16T21:40:40.366Z,21.50
2018-06-16T21:43:08.276Z,21.50
2018-06-16T21:45:35.962Z,21.50
2018-06-16T21:48:03.734Z,21.40
2018-06-16T21:50:31.406Z,21.40
2018-06-16T21:52:59.434Z,21.30
2018-06-16T21:55:27.178Z,21.20
2018-06-16T21:57:54.834Z,21.10
2018-06-16T22:00:22.613Z,21.10
2018-06-16T22:02:50.302Z,21.10
2018-06-16T22:05:18.005Z,21.00
2018-06-16T22:07:45.722Z,21.00
2018-06-16T22:10:13.538Z,20.90
2018-06-16T22:12:41.314Z,20.80
2018-06-16T22:15:09.063Z,20.80
2018-06-16T22:17:36.726Z,20.70
2018-06-16T22:20:04.550Z,20.60
2018-06-16T22:22:32.179Z,20.60
2018-06-16T22:24:59.902Z,20.50
2018-06-16T22:27:27.607Z,20.50
2018-06-16T22:29:55.250Z,20.40
2018-06-16T22:32:23.267Z,20.30
2018-06-16T22:34:51.740Z,20.30
2018-06-16T22:37:19.723Z,20.20
2018-06-16T22:39:47.489Z,20.20
2018-06-16T22:42:15.154Z,20.20
2018-06-16T22:44:43.323Z,20.10
2018-06-16T22:47:11.076Z,20.10
2018-06-16T22:49:38.798Z,20.10
2018-06-16T22:52:06.569Z,20.10
2018-06-16T22:54:34.283Z,20.00
2018-06-16T22:57:01.970Z,20.00
2018-06-16T22:59:29.609Z,20.00
2018-06-16T23:01:57.407Z,20.10
2018-06-16T23:04:25.361Z,20.10
2018-06-16T23:06:53.060Z,20.10
2018-06-16T23:09:20.789Z,20.10
2018-06-16T23:11:48.442Z,20.00
2018-06-16T23:14:16.101Z,20.00
2018-06-16T23:16:43.912Z,20.00
2018-06-16T23:19:11.554Z,20.00
2018-06-16T23:21:39.278Z,20.10
2018-06-16T23:24:07.368Z,20.10
2018-06-16T23:26:34.974Z,20.10
2018-06-16T23:29:02.723Z,20.00
2018-06-16T23:31:30.712Z,20.00
2018-06-16T23:33:58.553Z,20.00
2018-06-16T23:36:26.537Z,20.00
2018-06-16T23:38:54.210Z,20.00
2018-06-16T23:41:21.906Z,20.00
2018-06-16T23:43:49.760Z,20.00
2018-06-16T23:46:17.454Z,20.00
2018-06-16T23:48:45.262Z,20.00
2018-06-16T23:51:12.958Z,20.10
2018-06-16T23:53:40.634Z,20.10
2018-06-16T23:56:08.342Z,20.10
2018-06-16T23:58:36.011Z,20.10
